createdAt,value
2018-09-05T00:00:11.505Z,23.77
2018-09-05T00:02:40.584Z,23.40
2018-09-05T00:05:09.786Z,24.13
2018-09-05T00:07:38.712Z,22.87
2018-09-05T00:10:07.692Z,22.83
2018-09-05T00:12:36.672Z,23.33
2018-09-05T00:15:06.082Z,24.77
2018-09-05T00:17:35.078Z,25.27
2018-09-05T00:20:04.078Z,24.40
2018-09-05T00:22:33.051Z,24.33
2018-09-05T00:25:02.094Z,24.87
2018-09-05T00:27:31.043Z,24.53
2018-09-05T00:29:59.969Z,24.17
2018-09-05T00:32:28.981Z,24.53
2018-09-05T00:34:57.916Z,24.07
2018-09-05T00:37:26.954Z,23.33
2018-09-05T00:39:55.922Z,22.03
2018-09-05T00:42:24.937Z,25.37
2018-09-05T00:44:53.886Z,26.10
2018-09-05T00:47:22.919Z,26.73
2018-09-05T00:49:54.847Z,27.37
2018-09-05T00:52:23.862Z,27.93
2018-09-05T00:54:52.874Z,27.70
2018-09-05T00:57:21.786Z,27.03
2018-09-05T00:59:50.904Z,25.83
2018-09-05T01:02:20.084Z,26.10
2018-09-05T01:04:49.204Z,27.10
2018-09-05T01:07:27.061Z,25.47
2018-09-05T01:09:55.998Z,27.23
2018-09-05T01:12:25.434Z,26.33
2018-09-05T01:14:54.994Z,25.70
2018-09-05T01:17:24.034Z,26.47
2018-09-05T01:19:52.963Z,25.90
2018-09-05T01:22:21.895Z,25.63
2018-09-05T01:24:50.967Z,25.10
2018-09-05T01:27:20.142Z,26.10
2018-09-05T01:29:49.074Z,24.60
2018-09-05T01:32:18.003Z,23.73
2018-09-05T01:34:46.961Z,25.47
2018-09-05T01:37:15.899Z,24.20
2018-09-05T01:39:44.864Z,27.10
2018-09-05T01:42:13.833Z,27.20
2018-09-05T01:44:42.765Z,28.20
2018-09-05T01:47:11.690Z,31.00
2018-09-05T01:49:40.618Z,28.97
2018-09-05T01:52:09.614Z,28.23
2018-09-05T01:54:38.610Z,29.30
2018-09-05T01:57:07.609Z,31.30
2018-09-05T01:59:36.617Z,31.13
2018-09-05T02:02:05.529Z,31.37
2018-09-05T02:04:34.494Z,34.30
2018-09-05T02:07:03.410Z,32.80
2018-09-05T02:09:32.418Z,33.27
2018-09-05T02:12:01.362Z,30.77
2018-09-05T02:14:30.405Z,28.53
2018-09-05T02:16:59.370Z,29.37
2018-09-05T02:19:28.325Z,30.27
2018-09-05T02:21:57.293Z,28.03
2018-09-05T02:24:26.347Z,26.90
2018-09-05T02:26:55.273Z,26.10
2018-09-05T02:29:24.201Z,27.20
2018-09-05T02:31:53.188Z,28.13
2018-09-05T02:34:22.188Z,28.57
2018-09-05T02:36:51.190Z,28.83
2018-09-05T02:39:20.203Z,29.63
2018-09-05T02:41:49.178Z,29.93
2018-09-05T02:44:21.540Z,29.00
2018-09-05T02:46:50.967Z,29.53
2018-09-05T02:49:19.946Z,28.20
2018-09-05T02:51:48.865Z,29.13
2018-09-05T02:54:17.835Z,28.40
2018-09-05T02:56:46.829Z,29.13
2018-09-05T02:59:15.750Z,30.57
2018-09-05T03:01:44.693Z,32.50
2018-09-05T03:04:13.612Z,35.87
2018-09-05T03:06:42.625Z,35.50
2018-09-05T03:09:11.568Z,33.20
2018-09-05T03:11:40.481Z,36.50
2018-09-05T03:14:09.415Z,37.10
2018-09-05T03:16:38.409Z,37.00
2018-09-05T03:19:07.321Z,36.40
2018-09-05T03:21:36.292Z,33.93
2018-09-05T03:24:05.270Z,36.70
2018-09-05T03:26:34.244Z,37.07
2018-09-05T03:29:03.238Z,37.00
2018-09-05T03:31:32.470Z,36.87
2018-09-05T03:34:01.381Z,33.80
2018-09-05T03:36:30.295Z,35.40
2018-09-05T03:38:59.216Z,35.60
2018-09-05T03:41:28.134Z,34.90
2018-09-05T03:43:57.096Z,35.80
2018-09-05T03:46:26.075Z,33.57
2018-09-05T03:48:55.085Z,36.17
2018-09-05T03:51:23.994Z,38.30
2018-09-05T03:53:52.945Z,36.90
2018-09-05T03:56:21.890Z,36.50
2018-09-05T03:58:50.803Z,35.57
2018-09-05T04:01:19.751Z,39.07
2018-09-05T04:03:48.710Z,38.57
2018-09-05T04:06:20.892Z,38.60
2018-09-05T04:08:51.290Z,37.77
2018-09-05T04:11:20.233Z,39.50
2018-09-05T04:13:49.626Z,39.17
2018-09-05T04:16:18.640Z,36.67
2018-09-05T04:18:47.614Z,34.73
2018-09-05T04:21:16.604Z,35.27
2018-09-05T04:23:47.701Z,36.70
2018-09-05T04:26:18.078Z,36.20
2018-09-05T04:28:47.169Z,35.77
2018-09-05T04:31:16.361Z,33.67
2018-09-05T04:33:45.307Z,33.40
2018-09-05T04:36:15.085Z,36.13
2018-09-05T04:38:44.294Z,34.20
2018-09-05T04:41:13.514Z,34.70
2018-09-05T04:43:42.447Z,36.33
2018-09-05T04:46:11.391Z,36.77
2018-09-05T04:48:40.438Z,36.80
2018-09-05T04:51:09.365Z,37.17
2018-09-05T04:53:38.274Z,35.73
2018-09-05T04:56:07.262Z,33.70
2018-09-05T04:58:36.202Z,36.40
2018-09-05T05:01:05.201Z,35.57
2018-09-05T05:03:34.369Z,35.37
2018-09-05T05:06:03.390Z,35.20
2018-09-05T05:08:32.276Z,41.00
2018-09-05T05:11:01.221Z,36.77
2018-09-05T05:13:30.137Z,35.43
2018-09-05T05:15:59.057Z,36.33
2018-09-05T05:18:27.999Z,35.13
2018-09-05T05:20:56.958Z,37.30
2018-09-05T05:23:25.926Z,34.03
2018-09-05T05:25:54.893Z,37.53
2018-09-05T05:28:23.861Z,34.60
2018-09-05T05:30:52.815Z,35.17
2018-09-05T05:33:21.941Z,36.60
2018-09-05T05:35:50.936Z,38.27
2018-09-05T05:38:19.864Z,37.03
2018-09-05T05:40:48.829Z,37.33
2018-09-05T05:43:17.778Z,37.80
2018-09-05T05:45:46.722Z,37.77
2018-09-05T05:48:15.639Z,38.23
2018-09-05T05:50:45.082Z,37.20
2018-09-05T05:53:13.998Z,37.23
2018-09-05T05:55:42.917Z,38.20
2018-09-05T05:58:11.841Z,38.10
2018-09-05T06:00:40.779Z,37.70
2018-09-05T06:03:15.187Z,38.10
2018-09-05T06:05:44.104Z,40.27
2018-09-05T06:08:13.086Z,39.80
2018-09-05T06:10:42.029Z,41.60
2018-09-05T06:13:10.969Z,41.50
2018-09-05T06:15:39.937Z,40.43
2018-09-05T06:18:08.828Z,40.13
2018-09-05T06:20:37.813Z,40.00
2018-09-05T06:23:06.729Z,41.93
2018-09-05T06:25:35.737Z,40.73
2018-09-05T06:28:04.642Z,40.90
2018-09-05T06:30:33.727Z,41.43
2018-09-05T06:33:02.497Z,39.13
2018-09-05T06:35:31.439Z,40.03
2018-09-05T06:38:00.391Z,40.60
2018-09-05T06:40:29.326Z,40.13
2018-09-05T06:42:58.230Z,40.93
2018-09-05T06:45:27.245Z,40.50
2018-09-05T06:47:56.240Z,39.60
2018-09-05T06:50:25.162Z,41.80
2018-09-05T06:52:54.081Z,39.40
2018-09-05T06:55:23.007Z,42.43
2018-09-05T06:57:51.948Z,42.03
2018-09-05T07:00:20.869Z,41.20
2018-09-05T07:02:50.062Z,42.23
2018-09-05T07:05:19.646Z,43.40
2018-09-05T07:07:48.563Z,43.83
2018-09-05T07:10:17.505Z,41.40
2018-09-05T07:12:46.418Z,45.63
2018-09-05T07:15:15.346Z,41.73
2018-09-05T07:17:44.263Z,39.80
2018-09-05T07:20:13.177Z,43.47
2018-09-05T07:22:42.118Z,41.50
2018-09-05T07:25:11.046Z,42.57
2018-09-05T07:27:40.009Z,41.47
2018-09-05T07:30:08.886Z,40.37
2018-09-05T07:32:37.821Z,41.70
2018-09-05T07:35:06.773Z,42.50
2018-09-05T07:37:35.720Z,42.23
2018-09-05T07:40:04.714Z,40.80
2018-09-05T07:42:33.617Z,41.53
2018-09-05T07:45:02.539Z,41.43
2018-09-05T07:47:31.461Z,39.13
2018-09-05T07:50:00.374Z,42.50
2018-09-05T07:52:29.323Z,40.23
2018-09-05T07:54:58.262Z,41.30
2018-09-05T07:57:27.248Z,41.20
2018-09-05T07:59:56.097Z,40.43
2018-09-05T08:02:25.022Z,42.10
2018-09-05T08:04:53.995Z,39.60
2018-09-05T08:07:22.918Z,41.67
2018-09-05T08:09:51.835Z,39.70
2018-09-05T08:12:20.750Z,38.57
2018-09-05T08:14:49.861Z,37.40
2018-09-05T08:17:18.828Z,38.47
2018-09-05T08:19:47.680Z,36.90
2018-09-05T08:22:16.609Z,37.67
2018-09-05T08:24:45.535Z,36.57
2018-09-05T08:27:14.445Z,35.40
2018-09-05T08:29:43.372Z,34.17
2018-09-05T08:32:12.269Z,36.10
2018-09-05T08:34:41.265Z,36.37
2018-09-05T08:37:10.362Z,35.70
2018-09-05T08:39:39.074Z,34.07
2018-09-05T08:42:08.140Z,33.07
2018-09-05T08:45:06.054Z,34.53
2018-09-05T08:47:34.786Z,34.47
2018-09-05T08:50:03.693Z,36.70
2018-09-05T08:52:32.570Z,33.70
2018-09-05T08:55:01.522Z,33.67
2018-09-05T08:57:30.413Z,36.13
2018-09-05T08:59:59.342Z,34.60
2018-09-05T09:02:28.281Z,35.20
2018-09-05T09:04:57.291Z,34.30
2018-09-05T09:07:26.146Z,35.30
2018-09-05T09:09:55.314Z,34.37
2018-09-05T09:12:24.258Z,33.43
2018-09-05T09:14:53.195Z,35.30
2018-09-05T09:17:22.145Z,35.43
2018-09-05T09:19:52.169Z,33.73
2018-09-05T09:22:21.109Z,32.43
2018-09-05T09:24:50.043Z,33.57
2018-09-05T09:27:19.397Z,33.83
2018-09-05T09:29:48.319Z,33.03
2018-09-05T09:32:17.254Z,31.07
2018-09-05T09:34:46.200Z,31.20
2018-09-05T09:37:15.149Z,28.90
2018-09-05T09:39:44.079Z,32.10
2018-09-05T09:42:13.009Z,30.60
2018-09-05T09:44:41.921Z,30.40
2018-09-05T09:47:10.931Z,30.47
2018-09-05T09:49:39.837Z,31.60
2018-09-05T09:52:14.155Z,25.40
2018-09-05T09:54:43.077Z,25.53
2018-09-05T09:57:12.037Z,23.87
2018-09-05T09:59:40.982Z,28.27
2018-09-05T10:02:15.337Z,30.30
2018-09-05T10:04:49.581Z,27.07
2018-09-05T10:07:24.051Z,27.50
2018-09-05T10:09:54.709Z,28.03
2018-09-05T10:12:28.884Z,24.03
2018-09-05T10:15:03.171Z,19.60
2018-09-05T10:17:35.813Z,24.27
2018-09-05T10:20:04.988Z,24.70
2018-09-05T10:22:34.048Z,23.00
2018-09-05T10:25:02.935Z,18.53
2018-09-05T10:27:31.892Z,20.33
2018-09-05T10:30:00.861Z,21.00
2018-09-05T10:32:29.778Z,22.93
2018-09-05T10:34:58.706Z,21.97
2018-09-05T10:37:27.645Z,21.70
2018-09-05T10:39:56.553Z,25.07
2018-09-05T10:42:25.514Z,23.10
2018-09-05T10:44:54.536Z,20.07
2018-09-05T10:47:23.468Z,18.23
2018-09-05T10:49:52.396Z,18.90
2018-09-05T10:52:21.324Z,16.17
2018-09-05T10:54:50.244Z,15.00
2018-09-05T10:57:19.161Z,18.70
2018-09-05T10:59:48.129Z,19.23
2018-09-05T11:02:17.065Z,18.97
2018-09-05T11:04:46.061Z,17.90
2018-09-05T11:07:15.002Z,16.70
2018-09-05T11:09:43.925Z,22.87
2018-09-05T11:12:12.870Z,18.50
2018-09-05T11:14:41.821Z,20.07
2018-09-05T11:17:10.779Z,19.70
2018-09-05T11:19:39.720Z,19.60
2018-09-05T11:22:08.941Z,21.10
2018-09-05T11:24:37.877Z,24.10
2018-09-05T11:27:06.806Z,22.13
2018-09-05T11:29:35.744Z,22.73
2018-09-05T11:32:04.660Z,22.10
2018-09-05T11:34:33.593Z,21.63
2018-09-05T11:37:02.590Z,22.40
2018-09-05T11:39:31.481Z,20.20
2018-09-05T11:42:00.408Z,21.37
2018-09-05T11:44:29.356Z,18.00
2018-09-05T11:46:58.276Z,22.20
2018-09-05T11:49:27.245Z,22.50
2018-09-05T11:51:56.170Z,21.93
2018-09-05T11:54:25.105Z,20.77
2018-09-05T11:56:54.022Z,17.87
2018-09-05T11:59:22.955Z,19.20
2018-09-05T12:01:51.901Z,19.70
2018-09-05T12:04:21.470Z,19.63
2018-09-05T12:06:50.409Z,19.20
2018-09-05T12:09:19.362Z,21.33
2018-09-05T12:11:48.435Z,18.00
2018-09-05T12:14:17.356Z,18.73
2018-09-05T12:16:46.290Z,18.80
2018-09-05T12:19:15.221Z,17.50
2018-09-05T12:21:44.144Z,17.43
2018-09-05T12:24:13.087Z,14.97
2018-09-05T12:26:42.017Z,17.37
2018-09-05T12:29:12.445Z,16.03
2018-09-05T12:31:42.340Z,18.13
2018-09-05T12:34:11.966Z,18.30
2018-09-05T12:36:40.915Z,14.87
2018-09-05T12:39:12.218Z,17.90
2018-09-05T12:41:41.826Z,19.90
2018-09-05T12:44:11.311Z,19.40
2018-09-05T12:46:40.285Z,18.50
2018-09-05T12:49:09.239Z,18.73
2018-09-05T12:51:38.161Z,18.13
2018-09-05T12:54:07.514Z,19.53
2018-09-05T12:56:36.447Z,20.30
2018-09-05T12:59:05.414Z,21.10
2018-09-05T13:01:34.541Z,20.83
2018-09-05T13:04:03.470Z,17.43
2018-09-05T13:06:32.450Z,19.00
2018-09-05T13:09:01.418Z,21.80
2018-09-05T13:11:30.390Z,19.40
2018-09-05T13:13:59.258Z,19.77
2018-09-05T13:16:28.197Z,18.80
2018-09-05T13:18:57.194Z,21.80
2018-09-05T13:21:26.134Z,21.37
2018-09-05T13:23:55.058Z,20.77
2018-09-05T13:26:24.023Z,21.07
2018-09-05T13:28:53.005Z,19.10
2018-09-05T13:31:21.958Z,18.60
2018-09-05T13:33:50.907Z,18.33
2018-09-05T13:36:19.839Z,18.70
2018-09-05T13:38:48.774Z,18.80
2018-09-05T13:41:17.727Z,16.07
2018-09-05T13:43:47.286Z,16.17
2018-09-05T13:46:16.215Z,19.30
2018-09-05T13:48:45.138Z,18.30
2018-09-05T13:51:14.073Z,19.97
2018-09-05T13:53:42.997Z,19.43
2018-09-05T13:56:11.983Z,17.63
2018-09-05T13:58:40.846Z,16.90
2018-09-05T14:01:09.783Z,15.80
2018-09-05T14:03:38.741Z,15.83
2018-09-05T14:06:07.665Z,18.07
2018-09-05T14:08:36.732Z,17.03
2018-09-05T14:11:05.863Z,18.00
2018-09-05T14:13:34.855Z,17.33
2018-09-05T14:16:03.787Z,18.17
2018-09-05T14:18:32.730Z,20.00
2018-09-05T14:21:01.665Z,19.50
2018-09-05T14:23:30.767Z,19.10
2018-09-05T14:25:59.723Z,16.97
2018-09-05T14:28:28.645Z,16.70
2018-09-05T14:30:57.825Z,15.57
2018-09-05T14:33:26.735Z,14.40
2018-09-05T14:35:56.050Z,14.83
2018-09-05T14:38:24.968Z,16.53
2018-09-05T14:40:53.881Z,15.07
2018-09-05T14:43:22.826Z,15.23
2018-09-05T14:45:51.820Z,13.70
2018-09-05T14:48:20.824Z,13.97
2018-09-05T14:50:49.695Z,14.47
2018-09-05T14:53:18.635Z,14.77
2018-09-05T14:55:47.560Z,14.27
2018-09-05T14:58:16.490Z,14.10
2018-09-05T15:00:45.461Z,15.00
2018-09-05T15:03:14.546Z,13.67
2018-09-05T15:05:43.506Z,14.30
2018-09-05T15:08:12.462Z,13.50
2018-09-05T15:10:41.493Z,14.13
2018-09-05T15:13:10.429Z,14.53
2018-09-05T15:15:39.403Z,13.80
2018-09-05T15:18:08.321Z,14.67
2018-09-05T15:20:37.257Z,12.83
2018-09-05T15:23:06.508Z,12.73
2018-09-05T15:25:35.756Z,12.80
2018-09-05T15:28:04.693Z,13.90
2018-09-05T15:30:33.643Z,13.47
2018-09-05T15:33:02.605Z,13.47
2018-09-05T15:35:31.649Z,13.20
2018-09-05T15:38:00.734Z,13.20
2018-09-05T15:40:29.796Z,13.07
2018-09-05T15:42:58.778Z,13.00
2018-09-05T15:45:29.609Z,11.83
2018-09-05T15:47:58.607Z,11.50
2018-09-05T15:50:27.922Z,13.00
2018-09-05T15:52:56.880Z,12.63
2018-09-05T15:55:25.878Z,11.40
2018-09-05T15:57:55.251Z,12.23
2018-09-05T16:00:24.171Z,12.47
2018-09-05T16:02:53.485Z,12.47
2018-09-05T16:05:22.541Z,11.93
2018-09-05T16:07:52.030Z,12.27
2018-09-05T16:10:21.078Z,12.00
2018-09-05T16:12:50.397Z,12.40
2018-09-05T16:15:19.661Z,12.30
2018-09-05T16:17:49.397Z,10.47
2018-09-05T16:20:18.322Z,11.37
2018-09-05T16:22:47.314Z,10.90
2018-09-05T16:25:16.235Z,10.17
2018-09-05T16:27:45.357Z,10.30
2018-09-05T16:30:14.447Z,10.03
2018-09-05T16:32:43.455Z,11.23
2018-09-05T16:35:12.450Z,10.77
2018-09-05T16:37:41.433Z,10.87
2018-09-05T16:40:10.435Z,11.43
2018-09-05T16:42:39.418Z,11.00
2018-09-05T16:45:08.520Z,10.43
2018-09-05T16:47:37.472Z,10.67
2018-09-05T16:50:06.587Z,10.20
2018-09-05T16:52:36.704Z,10.20
2018-09-05T16:55:05.807Z,11.00
2018-09-05T16:57:34.950Z,10.83
2018-09-05T17:00:03.958Z,9.87
2018-09-05T17:02:32.899Z,10.70
2018-09-05T17:05:01.826Z,9.43
2018-09-05T17:07:30.786Z,10.70
2018-09-05T17:09:59.709Z,10.40
2018-09-05T17:12:28.751Z,9.97
2018-09-05T17:14:57.847Z,12.10
2018-09-05T17:17:26.878Z,10.80
2018-09-05T17:19:56.126Z,11.10
2018-09-05T17:22:25.239Z,9.80
2018-09-05T17:24:55.297Z,9.30
2018-09-05T17:27:24.217Z,9.30
2018-09-05T17:29:53.193Z,9.77
2018-09-05T17:32:22.166Z,10.17
2018-09-05T17:34:51.154Z,8.90
2018-09-05T17:37:20.061Z,9.50
2018-09-05T17:39:49.062Z,9.40
2018-09-05T17:42:19.061Z,10.20
2018-09-05T17:44:47.997Z,9.30
2018-09-05T17:47:17.113Z,8.80
2018-09-05T17:49:46.166Z,9.00
2018-09-05T17:52:15.609Z,8.47
2018-09-05T17:54:44.649Z,9.60
2018-09-05T17:57:13.735Z,9.73
2018-09-05T17:59:42.729Z,9.40
2018-09-05T18:02:11.711Z,8.80
2018-09-05T18:04:40.703Z,9.60
2018-09-05T18:07:09.774Z,10.10
2018-09-05T18:09:38.794Z,10.23
2018-09-05T18:12:08.812Z,10.20
2018-09-05T18:14:37.950Z,11.17
2018-09-05T18:17:06.986Z,10.17
2018-09-05T18:19:36.472Z,11.43
2018-09-05T18:22:07.070Z,10.90
2018-09-05T18:24:36.249Z,10.33
2018-09-05T18:27:05.778Z,12.50
2018-09-05T18:29:34.924Z,10.93
2018-09-05T18:32:03.957Z,12.37
2018-09-05T18:34:32.943Z,10.03
2018-09-05T18:37:02.638Z,11.40
2018-09-05T18:39:32.758Z,12.50
2018-09-05T18:42:01.862Z,12.83
2018-09-05T18:44:32.241Z,11.97
2018-09-05T18:47:01.412Z,10.87
2018-09-05T18:49:30.433Z,10.80
2018-09-05T18:51:59.685Z,10.70
2018-09-05T18:54:28.700Z,10.60
2018-09-05T18:56:57.767Z,10.60
2018-09-05T18:59:26.749Z,10.30
2018-09-05T19:01:56.858Z,10.90
2018-09-05T19:04:25.791Z,10.67
2018-09-05T19:06:54.845Z,10.10
2018-09-05T19:09:25.118Z,9.50
2018-09-05T19:11:54.234Z,9.67
2018-09-05T19:14:23.186Z,9.27
2018-09-05T19:16:52.122Z,9.07
2018-09-05T19:19:21.117Z,9.37
2018-09-05T19:21:50.052Z,9.33
2018-09-05T19:24:19.024Z,9.37
2018-09-05T19:26:48.101Z,9.30
2018-09-05T19:29:17.242Z,11.07
2018-09-05T19:31:46.731Z,10.17
2018-09-05T19:34:16.144Z,9.87
2018-09-05T19:36:45.145Z,10.03
2018-09-05T19:39:15.823Z,10.10
2018-09-05T19:41:45.257Z,8.80
2018-09-05T19:44:14.362Z,10.13
2018-09-05T19:46:43.402Z,9.20
2018-09-05T19:49:12.381Z,8.50
2018-09-05T19:51:41.417Z,8.60
2018-09-05T19:54:10.590Z,9.30
2018-09-05T19:56:40.612Z,7.93
2018-09-05T19:59:09.673Z,9.27
2018-09-05T20:01:38.562Z,7.50
2018-09-05T20:04:07.618Z,9.50
2018-09-05T20:06:36.685Z,8.53
2018-09-05T20:09:07.646Z,8.83
2018-09-05T20:11:36.698Z,8.27
2018-09-05T20:14:06.053Z,7.70
2018-09-05T20:16:34.998Z,8.60
2018-09-05T20:19:03.982Z,7.73
2018-09-05T20:21:34.013Z,8.00
2018-09-05T20:24:03.029Z,8.53
2018-09-05T20:26:32.122Z,7.60
2018-09-05T20:29:01.100Z,7.30
2018-09-05T20:31:30.173Z,7.40
2018-09-05T20:33:59.081Z,7.10
2018-09-05T20:36:28.068Z,7.60
2018-09-05T20:38:57.350Z,7.10
2018-09-05T20:41:26.269Z,7.60
2018-09-05T20:43:55.205Z,6.97
2018-09-05T20:46:24.379Z,8.23
2018-09-05T20:48:53.302Z,9.30
2018-09-05T20:51:24.390Z,8.10
2018-09-05T20:53:53.533Z,7.70
2018-09-05T20:56:23.259Z,7.77
2018-09-05T20:58:53.441Z,7.87
2018-09-05T21:01:22.597Z,8.00
2018-09-05T21:03:51.599Z,8.90
2018-09-05T21:06:21.687Z,8.03
2018-09-05T21:08:50.789Z,8.17
2018-09-05T21:11:19.945Z,7.50
2018-09-05T21:13:48.905Z,7.23
2018-09-05T21:16:17.861Z,7.47
2018-09-05T21:18:46.772Z,7.10
2018-09-05T21:21:15.749Z,7.57
2018-09-05T21:23:44.713Z,7.37
2018-09-05T21:26:13.834Z,7.70
2018-09-05T21:28:42.904Z,7.60
2018-09-05T21:31:11.861Z,7.00
2018-09-05T21:33:41.175Z,7.90
2018-09-05T21:36:12.303Z,6.57
2018-09-05T21:38:41.187Z,7.20
2018-09-05T21:41:10.097Z,7.10
2018-09-05T21:43:39.065Z,7.33
2018-09-05T21:46:08.053Z,7.23
2018-09-05T21:48:37.002Z,7.43
2018-09-05T21:51:05.909Z,7.03
2018-09-05T21:53:34.949Z,7.27
2018-09-05T21:56:03.927Z,6.10
2018-09-05T21:58:32.969Z,7.37
2018-09-05T22:01:01.922Z,7.50
2018-09-05T22:03:31.998Z,7.47
2018-09-05T22:06:01.079Z,7.77
2018-09-05T22:08:30.045Z,7.90
2018-09-05T22:11:03.254Z,7.60
2018-09-05T22:13:32.326Z,7.57
2018-09-05T22:16:01.345Z,7.33
2018-09-05T22:18:30.302Z,8.20
2018-09-05T22:20:59.310Z,8.37
2018-09-05T22:23:28.297Z,8.10
2018-09-05T22:25:57.285Z,7.40
2018-09-05T22:28:26.217Z,8.57
2018-09-05T22:30:55.405Z,9.20
2018-09-05T22:33:24.345Z,8.43
2018-09-05T22:35:53.495Z,9.37
2018-09-05T22:38:23.495Z,8.40
2018-09-05T22:40:52.477Z,9.00
2018-09-05T22:43:34.068Z,8.37
2018-09-05T22:46:14.454Z,7.50
2018-09-05T22:48:58.614Z,8.60
2018-09-05T22:51:59.568Z,8.70
2018-09-05T22:54:52.944Z,8.83
2018-09-05T22:58:18.703Z,8.57
2018-09-05T23:03:05.211Z,8.33
2018-09-05T23:05:51.701Z,8.60
2018-09-05T23:08:39.454Z,7.70
2018-09-05T23:11:20.327Z,8.00
2018-09-05T23:14:00.679Z,6.97
2018-09-05T23:16:41.495Z,8.20
2018-09-05T23:19:33.167Z,8.60
2018-09-05T23:22:02.195Z,6.80
2018-09-05T23:24:31.076Z,7.50
2018-09-05T23:27:00.033Z,7.90
2018-09-05T23:29:28.957Z,8.23
2018-09-05T23:31:58.395Z,7.77
2018-09-05T23:34:27.348Z,8.03
2018-09-05T23:36:56.394Z,7.57
2018-09-05T23:39:25.348Z,7.93
2018-09-05T23:41:54.370Z,8.20
2018-09-05T23:44:23.370Z,8.33
2018-09-05T23:46:52.303Z,8.40
2018-09-05T23:49:21.448Z,8.83
2018-09-05T23:51:50.413Z,8.40
2018-09-05T23:54:19.437Z,8.87
2018-09-05T23:56:48.402Z,8.50
2018-09-05T23:59:17.335Z,8.30
